sensor_id;sensor_type;location;lat;lon;timestamp;P1;durP1;ratioP1;P2;durP2;ratioP2
17024;SDS011;8629;42.496;25.620;2023-08-08T00:00:53;0.80;;;0.80;;
17024;SDS011;8629;42.496;25.620;2023-08-08T00:03:20;0.93;;;0.93;;
17024;SDS011;8629;42.496;25.620;2023-08-08T00:05:46;1.53;;;1.43;;
17024;SDS011;8629;42.496;25.620;2023-08-08T00:08:13;5.30;;;1.73;;
17024;SDS011;8629;42.496;25.620;2023-08-08T00:10:41;1.67;;;1.40;;
17024;SDS011;8629;42.496;25.620;2023-08-08T00:13:08;1.10;;;1.00;;
17024;SDS011;8629;42.496;25.620;2023-08-08T00:15:35;1.07;;;1.07;;
17024;SDS011;8629;42.496;25.620;2023-08-08T00:18:02;2.57;;;1.27;;
17024;SDS011;8629;42.496;25.620;2023-08-08T00:20:29;1.20;;;1.10;;
17024;SDS011;8629;42.496;25.620;2023-08-08T00:22:56;1.30;;;1.20;;
17024;SDS011;8629;42.496;25.620;2023-08-08T00:25:23;1.20;;;1.10;;
17024;SDS011;8629;42.496;25.620;2023-08-08T00:27:51;1.87;;;1.37;;
17024;SDS011;8629;42.496;25.620;2023-08-08T00:30:18;1.37;;;1.27;;
17024;SDS011;8629;42.496;25.620;2023-08-08T00:32:44;1.33;;;1.30;;
17024;SDS011;8629;42.496;25.620;2023-08-08T00:35:11;1.47;;;1.37;;
17024;SDS011;8629;42.496;25.620;2023-08-08T00:37:38;1.23;;;1.23;;
17024;SDS011;8629;42.496;25.620;2023-08-08T00:40:05;1.47;;;1.37;;
17024;SDS011;8629;42.496;25.620;2023-08-08T00:42:33;1.47;;;1.37;;
17024;SDS011;8629;42.496;25.620;2023-08-08T00:45:01;1.23;;;1.20;;
17024;SDS011;8629;42.496;25.620;2023-08-08T00:47:29;1.70;;;1.60;;
17024;SDS011;8629;42.496;25.620;2023-08-08T00:49:56;2.30;;;1.60;;
17024;SDS011;8629;42.496;25.620;2023-08-08T00:52:23;1.60;;;1.50;;
17024;SDS011;8629;42.496;25.620;2023-08-08T00:54:50;1.43;;;1.33;;
17024;SDS011;8629;42.496;25.620;2023-08-08T00:57:17;1.70;;;1.60;;
17024;SDS011;8629;42.496;25.620;2023-08-08T00:59:44;2.00;;;1.40;;
17024;SDS011;8629;42.496;25.620;2023-08-08T01:02:12;1.70;;;1.60;;
17024;SDS011;8629;42.496;25.620;2023-08-08T01:04:39;1.67;;;1.57;;
17024;SDS011;8629;42.496;25.620;2023-08-08T01:07:08;1.50;;;1.40;;
17024;SDS011;8629;42.496;25.620;2023-08-08T01:09:45;1.30;;;1.20;;
17024;SDS011;8629;42.496;25.620;2023-08-08T01:12:15;1.60;;;1.50;;
17024;SDS011;8629;42.496;25.620;2023-08-08T01:14:42;2.00;;;1.90;;
17024;SDS011;8629;42.496;25.620;2023-08-08T01:17:10;1.20;;;1.10;;
17024;SDS011;8629;42.496;25.620;2023-08-08T01:19:38;1.60;;;1.50;;
17024;SDS011;8629;42.496;25.620;2023-08-08T01:22:06;1.40;;;1.30;;
17024;SDS011;8629;42.496;25.620;2023-08-08T01:24:37;1.70;;;1.60;;
17024;SDS011;8629;42.496;25.620;2023-08-08T01:27:04;1.50;;;1.13;;
17024;SDS011;8629;42.496;25.620;2023-08-08T01:29:32;1.67;;;1.30;;
17024;SDS011;8629;42.496;25.620;2023-08-08T01:31:59;1.70;;;1.60;;
17024;SDS011;8629;42.496;25.620;2023-08-08T01:34:25;1.50;;;1.40;;
17024;SDS011;8629;42.496;25.620;2023-08-08T01:36:54;1.47;;;1.37;;
17024;SDS011;8629;42.496;25.620;2023-08-08T01:39:24;2.33;;;1.37;;
17024;SDS011;8629;42.496;25.620;2023-08-08T01:41:54;2.30;;;1.30;;
17024;SDS011;8629;42.496;25.620;2023-08-08T01:44:22;1.60;;;1.50;;
17024;SDS011;8629;42.496;25.620;2023-08-08T01:46:50;1.17;;;1.17;;
17024;SDS011;8629;42.496;25.620;2023-08-08T01:49:17;1.07;;;1.07;;
17024;SDS011;8629;42.496;25.620;2023-08-08T01:51:44;1.27;;;1.23;;
17024;SDS011;8629;42.496;25.620;2023-08-08T01:54:11;1.60;;;1.50;;
17024;SDS011;8629;42.496;25.620;2023-08-08T01:56:37;1.67;;;1.10;;
17024;SDS011;8629;42.496;25.620;2023-08-08T01:59:06;1.30;;;1.20;;
17024;SDS011;8629;42.496;25.620;2023-08-08T02:01:32;1.50;;;1.40;;
17024;SDS011;8629;42.496;25.620;2023-08-08T02:03:59;1.93;;;1.80;;
17024;SDS011;8629;42.496;25.620;2023-08-08T02:06:26;1.40;;;1.30;;
17024;SDS011;8629;42.496;25.620;2023-08-08T02:08:53;1.27;;;1.23;;
17024;SDS011;8629;42.496;25.620;2023-08-08T02:11:19;1.00;;;1.00;;
17024;SDS011;8629;42.496;25.620;2023-08-08T02:13:47;1.50;;;1.40;;
17024;SDS011;8629;42.496;25.620;2023-08-08T02:16:15;1.40;;;1.30;;
17024;SDS011;8629;42.496;25.620;2023-08-08T02:18:42;1.43;;;1.40;;
17024;SDS011;8629;42.496;25.620;2023-08-08T02:21:09;0.93;;;0.93;;
17024;SDS011;8629;42.496;25.620;2023-08-08T02:23:36;1.17;;;1.10;;
17024;SDS011;8629;42.496;25.620;2023-08-08T02:26:03;1.30;;;1.20;;
17024;SDS011;8629;42.496;25.620;2023-08-08T02:28:29;3.03;;;1.60;;
17024;SDS011;8629;42.496;25.620;2023-08-08T02:30:56;1.10;;;1.10;;
17024;SDS011;8629;42.496;25.620;2023-08-08T02:33:24;1.27;;;1.17;;
17024;SDS011;8629;42.496;25.620;2023-08-08T02:35:51;1.17;;;1.17;;
17024;SDS011;8629;42.496;25.620;2023-08-08T02:38:18;0.83;;;0.83;;
17024;SDS011;8629;42.496;25.620;2023-08-08T02:40:45;0.90;;;0.90;;
17024;SDS011;8629;42.496;25.620;2023-08-08T02:43:12;1.00;;;1.00;;
17024;SDS011;8629;42.496;25.620;2023-08-08T02:45:38;1.20;;;1.10;;
17024;SDS011;8629;42.496;25.620;2023-08-08T02:48:06;1.27;;;1.10;;
17024;SDS011;8629;42.496;25.620;2023-08-08T02:50:34;2.20;;;1.50;;
17024;SDS011;8629;42.496;25.620;2023-08-08T02:53:01;1.07;;;1.03;;
17024;SDS011;8629;42.496;25.620;2023-08-08T02:55:27;1.03;;;1.03;;
17024;SDS011;8629;42.496;25.620;2023-08-08T02:57:54;3.63;;;1.13;;
17024;SDS011;8629;42.496;25.620;2023-08-08T03:00:21;2.20;;;1.10;;
17024;SDS011;8629;42.496;25.620;2023-08-08T03:02:48;3.20;;;1.40;;
17024;SDS011;8629;42.496;25.620;2023-08-08T03:05:15;1.43;;;0.90;;
17024;SDS011;8629;42.496;25.620;2023-08-08T03:07:43;0.90;;;0.90;;
17024;SDS011;8629;42.496;25.620;2023-08-08T03:10:10;0.80;;;0.80;;
17024;SDS011;8629;42.496;25.620;2023-08-08T03:12:36;0.60;;;0.60;;
17024;SDS011;8629;42.496;25.620;2023-08-08T03:15:05;0.50;;;0.50;;
17024;SDS011;8629;42.496;25.620;2023-08-08T03:17:32;4.30;;;2.43;;
17024;SDS011;8629;42.496;25.620;2023-08-08T03:20:00;0.60;;;0.60;;
17024;SDS011;8629;42.496;25.620;2023-08-08T03:22:27;0.60;;;0.60;;
17024;SDS011;8629;42.496;25.620;2023-08-08T03:24:56;0.53;;;0.53;;
17024;SDS011;8629;42.496;25.620;2023-08-08T03:27:23;0.60;;;0.60;;
17024;SDS011;8629;42.496;25.620;2023-08-08T03:29:50;0.40;;;0.40;;
17024;SDS011;8629;42.496;25.620;2023-08-08T03:32:17;0.47;;;0.47;;
17024;SDS011;8629;42.496;25.620;2023-08-08T03:34:43;0.47;;;0.47;;
17024;SDS011;8629;42.496;25.620;2023-08-08T03:37:10;0.67;;;0.60;;
17024;SDS011;8629;42.496;25.620;2023-08-08T03:39:37;0.57;;;0.57;;
17024;SDS011;8629;42.496;25.620;2023-08-08T03:42:05;0.60;;;0.60;;
17024;SDS011;8629;42.496;25.620;2023-08-08T03:44:32;0.40;;;0.40;;
17024;SDS011;8629;42.496;25.620;2023-08-08T03:46:59;1.07;;;0.80;;
17024;SDS011;8629;42.496;25.620;2023-08-08T03:49:26;0.93;;;0.60;;
17024;SDS011;8629;42.496;25.620;2023-08-08T03:51:53;0.80;;;0.70;;
17024;SDS011;8629;42.496;25.620;2023-08-08T03:54:19;0.70;;;0.70;;
17024;SDS011;8629;42.496;25.620;2023-08-08T03:56:46;0.90;;;0.90;;
17024;SDS011;8629;42.496;25.620;2023-08-08T03:59:14;1.20;;;0.83;;
17024;SDS011;8629;42.496;25.620;2023-08-08T04:01:41;0.73;;;0.73;;
17024;SDS011;8629;42.496;25.620;2023-08-08T04:04:08;0.50;;;0.50;;
17024;SDS011;8629;42.496;25.620;2023-08-08T04:06:35;0.60;;;0.60;;
17024;SDS011;8629;42.496;25.620;2023-08-08T04:09:01;0.60;;;0.60;;
17024;SDS011;8629;42.496;25.620;2023-08-08T04:11:28;0.80;;;0.80;;
17024;SDS011;8629;42.496;25.620;2023-08-08T04:13:55;0.40;;;0.40;;
17024;SDS011;8629;42.496;25.620;2023-08-08T04:16:23;0.60;;;0.60;;
17024;SDS011;8629;42.496;25.620;2023-08-08T04:18:50;0.50;;;0.50;;
17024;SDS011;8629;42.496;25.620;2023-08-08T04:21:17;0.33;;;0.33;;
17024;SDS011;8629;42.496;25.620;2023-08-08T04:23:43;0.63;;;0.63;;
17024;SDS011;8629;42.496;25.620;2023-08-08T04:26:10;0.60;;;0.60;;
17024;SDS011;8629;42.496;25.620;2023-08-08T04:28:37;0.60;;;0.60;;
17024;SDS011;8629;42.496;25.620;2023-08-08T04:31:04;1.40;;;0.53;;
17024;SDS011;8629;42.496;25.620;2023-08-08T04:33:32;0.73;;;0.73;;
17024;SDS011;8629;42.496;25.620;2023-08-08T04:35:59;0.40;;;0.40;;
17024;SDS011;8629;42.496;25.620;2023-08-08T04:38:26;0.60;;;0.60;;
17024;SDS011;8629;42.496;25.620;2023-08-08T04:40:52;0.67;;;0.60;;
17024;SDS011;8629;42.496;25.620;2023-08-08T04:43:19;0.60;;;0.60;;
17024;SDS011;8629;42.496;25.620;2023-08-08T04:45:46;0.90;;;0.90;;
17024;SDS011;8629;42.496;25.620;2023-08-08T04:48:13;0.70;;;0.70;;
17024;SDS011;8629;42.496;25.620;2023-08-08T04:50:41;0.70;;;0.60;;
17024;SDS011;8629;42.496;25.620;2023-08-08T04:53:07;0.70;;;0.60;;
17024;SDS011;8629;42.496;25.620;2023-08-08T04:55:34;0.60;;;0.60;;
17024;SDS011;8629;42.496;25.620;2023-08-08T04:58:01;0.60;;;0.60;;
17024;SDS011;8629;42.496;25.620;2023-08-08T05:00:28;0.80;;;0.80;;
17024;SDS011;8629;42.496;25.620;2023-08-08T05:02:54;5.57;;;0.70;;
17024;SDS011;8629;42.496;25.620;2023-08-08T05:05:21;0.80;;;0.80;;
17024;SDS011;8629;42.496;25.620;2023-08-08T05:07:50;0.70;;;0.70;;
17024;SDS011;8629;42.496;25.620;2023-08-08T05:10:16;1.10;;;1.00;;
17024;SDS011;8629;42.496;25.620;2023-08-08T05:12:43;0.97;;;0.70;;
17024;SDS011;8629;42.496;25.620;2023-08-08T05:15:10;0.70;;;0.70;;
17024;SDS011;8629;42.496;25.620;2023-08-08T05:17:37;0.90;;;0.73;;
17024;SDS011;8629;42.496;25.620;2023-08-08T05:20:05;0.80;;;0.80;;
17024;SDS011;8629;42.496;25.620;2023-08-08T05:22:33;0.70;;;0.70;;
17024;SDS011;8629;42.496;25.620;2023-08-08T05:25:02;1.03;;;0.93;;
17024;SDS011;8629;42.496;25.620;2023-08-08T05:27:29;0.77;;;0.77;;
17024;SDS011;8629;42.496;25.620;2023-08-08T05:29:55;1.30;;;1.20;;
17024;SDS011;8629;42.496;25.620;2023-08-08T05:32:22;0.70;;;0.70;;
17024;SDS011;8629;42.496;25.620;2023-08-08T05:34:50;0.70;;;0.70;;
17024;SDS011;8629;42.496;25.620;2023-08-08T05:37:17;0.97;;;0.97;;
17024;SDS011;8629;42.496;25.620;2023-08-08T05:39:44;0.63;;;0.63;;
17024;SDS011;8629;42.496;25.620;2023-08-08T05:42:12;0.77;;;0.77;;
17024;SDS011;8629;42.496;25.620;2023-08-08T05:44:39;0.90;;;0.90;;
17024;SDS011;8629;42.496;25.620;2023-08-08T05:47:07;0.83;;;0.80;;
17024;SDS011;8629;42.496;25.620;2023-08-08T05:49:33;1.20;;;1.10;;
17024;SDS011;8629;42.496;25.620;2023-08-08T05:52:00;1.87;;;1.13;;
17024;SDS011;8629;42.496;25.620;2023-08-08T05:54:27;1.30;;;1.20;;
17024;SDS011;8629;42.496;25.620;2023-08-08T05:56:54;1.00;;;1.00;;
17024;SDS011;8629;42.496;25.620;2023-08-08T05:59:22;1.30;;;1.13;;
17024;SDS011;8629;42.496;25.620;2023-08-08T06:01:49;1.20;;;1.20;;
17024;SDS011;8629;42.496;25.620;2023-08-08T06:04:16;2.63;;;1.30;;
17024;SDS011;8629;42.496;25.620;2023-08-08T06:06:43;1.37;;;1.30;;
17024;SDS011;8629;42.496;25.620;2023-08-08T06:09:10;1.40;;;1.30;;
17024;SDS011;8629;42.496;25.620;2023-08-08T06:11:37;1.70;;;1.60;;
17024;SDS011;8629;42.496;25.620;2023-08-08T06:14:04;1.70;;;1.60;;
17024;SDS011;8629;42.496;25.620;2023-08-08T06:16:32;1.60;;;1.50;;
17024;SDS011;8629;42.496;25.620;2023-08-08T06:18:58;1.63;;;1.40;;
17024;SDS011;8629;42.496;25.620;2023-08-08T06:21:25;1.60;;;1.50;;
17024;SDS011;8629;42.496;25.620;2023-08-08T06:23:52;2.17;;;2.07;;
17024;SDS011;8629;42.496;25.620;2023-08-08T06:26:20;1.70;;;1.60;;
17024;SDS011;8629;42.496;25.620;2023-08-08T06:28:47;3.57;;;2.03;;
17024;SDS011;8629;42.496;25.620;2023-08-08T06:31:14;2.93;;;1.87;;
17024;SDS011;8629;42.496;25.620;2023-08-08T06:33:42;4.00;;;1.70;;
17024;SDS011;8629;42.496;25.620;2023-08-08T06:36:09;1.90;;;1.80;;
17024;SDS011;8629;42.496;25.620;2023-08-08T06:38:35;1.60;;;1.50;;
17024;SDS011;8629;42.496;25.620;2023-08-08T06:41:02;1.80;;;1.70;;
17024;SDS011;8629;42.496;25.620;2023-08-08T06:43:29;1.70;;;1.60;;
17024;SDS011;8629;42.496;25.620;2023-08-08T06:45:56;2.50;;;2.07;;
17024;SDS011;8629;42.496;25.620;2023-08-08T06:48:23;2.57;;;2.37;;
17024;SDS011;8629;42.496;25.620;2023-08-08T06:50:51;3.00;;;2.00;;
17024;SDS011;8629;42.496;25.620;2023-08-08T06:53:18;2.10;;;1.90;;
17024;SDS011;8629;42.496;25.620;2023-08-08T06:55:45;1.90;;;1.80;;
17024;SDS011;8629;42.496;25.620;2023-08-08T06:58:12;1.73;;;1.63;;
17024;SDS011;8629;42.496;25.620;2023-08-08T07:00:39;2.63;;;2.43;;
17024;SDS011;8629;42.496;25.620;2023-08-08T07:03:06;2.80;;;2.00;;
17024;SDS011;8629;42.496;25.620;2023-08-08T07:05:33;2.40;;;2.20;;
17024;SDS011;8629;42.496;25.620;2023-08-08T07:08:01;2.30;;;2.10;;
17024;SDS011;8629;42.496;25.620;2023-08-08T07:10:27;2.37;;;2.17;;
17024;SDS011;8629;42.496;25.620;2023-08-08T07:12:54;2.40;;;2.20;;
17024;SDS011;8629;42.496;25.620;2023-08-08T07:15:21;2.90;;;2.07;;
17024;SDS011;8629;42.496;25.620;2023-08-08T07:17:49;2.73;;;2.27;;
17024;SDS011;8629;42.496;25.620;2023-08-08T07:20:16;3.10;;;2.90;;
17024;SDS011;8629;42.496;25.620;2023-08-08T07:22:43;3.13;;;2.20;;
17024;SDS011;8629;42.496;25.620;2023-08-08T07:25:11;2.00;;;1.90;;
17024;SDS011;8629;42.496;25.620;2023-08-08T07:27:38;4.10;;;2.00;;
17024;SDS011;8629;42.496;25.620;2023-08-08T07:30:05;2.50;;;2.30;;
17024;SDS011;8629;42.496;25.620;2023-08-08T07:32:33;2.30;;;2.20;;
17024;SDS011;8629;42.496;25.620;2023-08-08T07:34:59;2.37;;;2.27;;
17024;SDS011;8629;42.496;25.620;2023-08-08T07:37:30;1.90;;;1.80;;
17024;SDS011;8629;42.496;25.620;2023-08-08T07:39:57;2.30;;;2.10;;
17024;SDS011;8629;42.496;25.620;2023-08-08T07:42:28;2.67;;;2.47;;
17024;SDS011;8629;42.496;25.620;2023-08-08T07:44:55;2.63;;;2.00;;
17024;SDS011;8629;42.496;25.620;2023-08-08T07:47:22;2.00;;;1.90;;
17024;SDS011;8629;42.496;25.620;2023-08-08T07:49:49;2.47;;;2.00;;
17024;SDS011;8629;42.496;25.620;2023-08-08T07:52:16;1.90;;;1.80;;
17024;SDS011;8629;42.496;25.620;2023-08-08T07:54:42;2.20;;;2.00;;
17024;SDS011;8629;42.496;25.620;2023-08-08T07:57:09;2.50;;;2.30;;
17024;SDS011;8629;42.496;25.620;2023-08-08T07:59:38;3.37;;;2.60;;
17024;SDS011;8629;42.496;25.620;2023-08-08T08:02:05;2.20;;;2.10;;
17024;SDS011;8629;42.496;25.620;2023-08-08T08:04:33;2.30;;;2.10;;
17024;SDS011;8629;42.496;25.620;2023-08-08T08:06:59;5.00;;;2.00;;
17024;SDS011;8629;42.496;25.620;2023-08-08T08:09:27;2.57;;;2.37;;
17024;SDS011;8629;42.496;25.620;2023-08-08T08:11:54;2.10;;;2.00;;
17024;SDS011;8629;42.496;25.620;2023-08-08T08:14:21;2.40;;;2.30;;
17024;SDS011;8629;42.496;25.620;2023-08-08T08:16:50;2.80;;;1.90;;
17024;SDS011;8629;42.496;25.620;2023-08-08T08:19:17;2.50;;;2.13;;
17024;SDS011;8629;42.496;25.620;2023-08-08T08:21:44;2.20;;;2.10;;
17024;SDS011;8629;42.496;25.620;2023-08-08T08:24:11;2.87;;;2.30;;
17024;SDS011;8629;42.496;25.620;2023-08-08T08:26:38;2.10;;;2.00;;
17024;SDS011;8629;42.496;25.620;2023-08-08T08:29:04;2.10;;;2.00;;
17024;SDS011;8629;42.496;25.620;2023-08-08T08:31:32;2.07;;;1.97;;
17024;SDS011;8629;42.496;25.620;2023-08-08T08:34:00;1.77;;;1.67;;
17024;SDS011;8629;42.496;25.620;2023-08-08T08:36:27;2.10;;;2.00;;
17024;SDS011;8629;42.496;25.620;2023-08-08T08:38:54;1.70;;;1.60;;
17024;SDS011;8629;42.496;25.620;2023-08-08T08:41:21;2.43;;;2.07;;
17024;SDS011;8629;42.496;25.620;2023-08-08T08:43:51;2.13;;;1.90;;
17024;SDS011;8629;42.496;25.620;2023-08-08T08:46:20;2.00;;;1.90;;
17024;SDS011;8629;42.496;25.620;2023-08-08T08:48:48;2.20;;;2.00;;
17024;SDS011;8629;42.496;25.620;2023-08-08T08:51:17;2.17;;;1.93;;
17024;SDS011;8629;42.496;25.620;2023-08-08T08:53:44;1.90;;;1.80;;
17024;SDS011;8629;42.496;25.620;2023-08-08T08:56:11;1.50;;;1.40;;
17024;SDS011;8629;42.496;25.620;2023-08-08T08:58:39;1.97;;;1.87;;
17024;SDS011;8629;42.496;25.620;2023-08-08T09:01:07;1.03;;;1.03;;
17024;SDS011;8629;42.496;25.620;2023-08-08T09:03:34;1.30;;;1.30;;
17024;SDS011;8629;42.496;25.620;2023-08-08T09:06:00;1.30;;;1.20;;
17024;SDS011;8629;42.496;25.620;2023-08-08T09:08:29;1.00;;;1.00;;
17024;SDS011;8629;42.496;25.620;2023-08-08T09:10:56;1.00;;;1.00;;
17024;SDS011;8629;42.496;25.620;2023-08-08T09:13:23;1.80;;;1.70;;
17024;SDS011;8629;42.496;25.620;2023-08-08T09:15:51;1.03;;;1.03;;
17024;SDS011;8629;42.496;25.620;2023-08-08T09:18:18;1.20;;;1.03;;
17024;SDS011;8629;42.496;25.620;2023-08-08T09:20:46;0.97;;;0.97;;
17024;SDS011;8629;42.496;25.620;2023-08-08T09:23:14;1.00;;;1.00;;
17024;SDS011;8629;42.496;25.620;2023-08-08T09:25:42;1.30;;;1.17;;
17024;SDS011;8629;42.496;25.620;2023-08-08T09:28:09;1.60;;;1.50;;
17024;SDS011;8629;42.496;25.620;2023-08-08T09:30:36;1.60;;;1.50;;
17024;SDS011;8629;42.496;25.620;2023-08-08T09:33:03;2.10;;;1.40;;
17024;SDS011;8629;42.496;25.620;2023-08-08T09:35:30;3.17;;;1.40;;
17024;SDS011;8629;42.496;25.620;2023-08-08T09:37:57;1.57;;;1.47;;
17024;SDS011;8629;42.496;25.620;2023-08-08T09:40:24;1.60;;;1.50;;
17024;SDS011;8629;42.496;25.620;2023-08-08T09:42:53;2.27;;;1.40;;
17024;SDS011;8629;42.496;25.620;2023-08-08T09:45:20;1.37;;;1.27;;
17024;SDS011;8629;42.496;25.620;2023-08-08T09:47:48;1.37;;;1.07;;
17024;SDS011;8629;42.496;25.620;2023-08-08T09:50:16;1.53;;;1.43;;
17024;SDS011;8629;42.496;25.620;2023-08-08T09:52:43;1.23;;;1.23;;
17024;SDS011;8629;42.496;25.620;2023-08-08T09:55:10;1.93;;;1.50;;
17024;SDS011;8629;42.496;25.620;2023-08-08T09:57:38;1.33;;;1.23;;
17024;SDS011;8629;42.496;25.620;2023-08-08T10:00:07;1.27;;;1.17;;
17024;SDS011;8629;42.496;25.620;2023-08-08T10:02:37;1.10;;;1.10;;
17024;SDS011;8629;42.496;25.620;2023-08-08T10:05:04;1.17;;;1.13;;
17024;SDS011;8629;42.496;25.620;2023-08-08T10:07:31;1.10;;;1.00;;
17024;SDS011;8629;42.496;25.620;2023-08-08T10:09:57;1.30;;;1.20;;
17024;SDS011;8629;42.496;25.620;2023-08-08T10:12:25;1.03;;;1.03;;
17024;SDS011;8629;42.496;25.620;2023-08-08T10:14:52;1.20;;;1.10;;
17024;SDS011;8629;42.496;25.620;2023-08-08T10:17:23;1.23;;;1.20;;
17024;SDS011;8629;42.496;25.620;2023-08-08T10:19:50;1.33;;;1.13;;
17024;SDS011;8629;42.496;25.620;2023-08-08T10:22:20;1.10;;;1.10;;
17024;SDS011;8629;42.496;25.620;2023-08-08T10:24:50;1.30;;;1.20;;
17024;SDS011;8629;42.496;25.620;2023-08-08T10:27:26;0.57;;;0.57;;
17024;SDS011;8629;42.496;25.620;2023-08-08T10:29:53;0.70;;;0.70;;
17024;SDS011;8629;42.496;25.620;2023-08-08T10:32:28;1.07;;;0.97;;
17024;SDS011;8629;42.496;25.620;2023-08-08T10:34:55;0.70;;;0.70;;
17024;SDS011;8629;42.496;25.620;2023-08-08T10:37:22;0.97;;;0.97;;
17024;SDS011;8629;42.496;25.620;2023-08-08T10:39:52;1.73;;;0.83;;
17024;SDS011;8629;42.496;25.620;2023-08-08T10:42:19;0.80;;;0.80;;
17024;SDS011;8629;42.496;25.620;2023-08-08T10:44:50;1.00;;;1.00;;
17024;SDS011;8629;42.496;25.620;2023-08-08T10:47:21;0.80;;;0.80;;
17024;SDS011;8629;42.496;25.620;2023-08-08T10:49:57;0.90;;;0.90;;
17024;SDS011;8629;42.496;25.620;2023-08-08T10:52:26;0.70;;;0.70;;
17024;SDS011;8629;42.496;25.620;2023-08-08T10:54:52;0.80;;;0.80;;
17024;SDS011;8629;42.496;25.620;2023-08-08T10:57:20;1.90;;;0.70;;
17024;SDS011;8629;42.496;25.620;2023-08-08T10:59:50;0.83;;;0.83;;
17024;SDS011;8629;42.496;25.620;2023-08-08T11:02:17;5.63;;;1.27;;
17024;SDS011;8629;42.496;25.620;2023-08-08T11:04:44;0.77;;;0.77;;
17024;SDS011;8629;42.496;25.620;2023-08-08T11:07:12;1.23;;;1.13;;
17024;SDS011;8629;42.496;25.620;2023-08-08T11:09:42;1.30;;;1.20;;
17024;SDS011;8629;42.496;25.620;2023-08-08T11:12:13;1.73;;;1.10;;
17024;SDS011;8629;42.496;25.620;2023-08-08T11:14:40;1.30;;;1.20;;
17024;SDS011;8629;42.496;25.620;2023-08-08T11:17:08;1.10;;;1.00;;
17024;SDS011;8629;42.496;25.620;2023-08-08T11:19:38;1.10;;;1.10;;
17024;SDS011;8629;42.496;25.620;2023-08-08T11:22:09;2.17;;;1.40;;
17024;SDS011;8629;42.496;25.620;2023-08-08T11:24:38;2.50;;;1.00;;
17024;SDS011;8629;42.496;25.620;2023-08-08T11:27:05;1.60;;;1.00;;
17024;SDS011;8629;42.496;25.620;2023-08-08T11:29:31;1.00;;;1.00;;
17024;SDS011;8629;42.496;25.620;2023-08-08T11:31:59;1.13;;;1.03;;
17024;SDS011;8629;42.496;25.620;2023-08-08T11:34:29;0.93;;;0.93;;
17024;SDS011;8629;42.496;25.620;2023-08-08T11:36:57;0.93;;;0.93;;
17024;SDS011;8629;42.496;25.620;2023-08-08T11:39:24;1.00;;;1.00;;
17024;SDS011;8629;42.496;25.620;2023-08-08T11:41:53;0.90;;;0.90;;
17024;SDS011;8629;42.496;25.620;2023-08-08T11:44:20;1.57;;;0.90;;
17024;SDS011;8629;42.496;25.620;2023-08-08T11:46:49;0.80;;;0.80;;
17024;SDS011;8629;42.496;25.620;2023-08-08T11:49:16;1.20;;;1.10;;
17024;SDS011;8629;42.496;25.620;2023-08-08T11:51:43;1.20;;;1.10;;
17024;SDS011;8629;42.496;25.620;2023-08-08T11:54:11;0.80;;;0.80;;
17024;SDS011;8629;42.496;25.620;2023-08-08T11:56:38;1.17;;;1.07;;
17024;SDS011;8629;42.496;25.620;2023-08-08T11:59:07;1.00;;;1.00;;
17024;SDS011;8629;42.496;25.620;2023-08-08T12:01:34;1.20;;;1.10;;
17024;SDS011;8629;42.496;25.620;2023-08-08T12:04:06;1.10;;;1.10;;
17024;SDS011;8629;42.496;25.620;2023-08-08T12:06:34;2.77;;;1.17;;
17024;SDS011;8629;42.496;25.620;2023-08-08T12:09:04;2.60;;;1.10;;
17024;SDS011;8629;42.496;25.620;2023-08-08T12:11:33;1.30;;;1.20;;
17024;SDS011;8629;42.496;25.620;2023-08-08T12:14:01;1.40;;;1.30;;
17024;SDS011;8629;42.496;25.620;2023-08-08T12:16:29;1.57;;;1.40;;
17024;SDS011;8629;42.496;25.620;2023-08-08T12:18:57;1.50;;;1.40;;
17024;SDS011;8629;42.496;25.620;2023-08-08T12:21:25;1.30;;;1.30;;
17024;SDS011;8629;42.496;25.620;2023-08-08T12:23:53;1.23;;;1.13;;
17024;SDS011;8629;42.496;25.620;2023-08-08T12:26:20;1.67;;;1.03;;
17024;SDS011;8629;42.496;25.620;2023-08-08T12:28:47;1.10;;;1.10;;
17024;SDS011;8629;42.496;25.620;2023-08-08T12:31:16;1.10;;;1.10;;
17024;SDS011;8629;42.496;25.620;2023-08-08T12:33:44;1.47;;;1.37;;
17024;SDS011;8629;42.496;25.620;2023-08-08T12:36:11;1.00;;;1.00;;
17024;SDS011;8629;42.496;25.620;2023-08-08T12:38:38;1.03;;;1.03;;
17024;SDS011;8629;42.496;25.620;2023-08-08T12:41:05;1.20;;;1.10;;
17024;SDS011;8629;42.496;25.620;2023-08-08T12:43:32;1.77;;;1.00;;
17024;SDS011;8629;42.496;25.620;2023-08-08T12:45:59;1.30;;;1.00;;
17024;SDS011;8629;42.496;25.620;2023-08-08T12:48:26;3.73;;;1.53;;
17024;SDS011;8629;42.496;25.620;2023-08-08T12:50:54;1.47;;;1.10;;
17024;SDS011;8629;42.496;25.620;2023-08-08T12:53:21;1.20;;;1.10;;
17024;SDS011;8629;42.496;25.620;2023-08-08T12:55:48;0.80;;;0.80;;
17024;SDS011;8629;42.496;25.620;2023-08-08T12:58:16;0.97;;;0.97;;
17024;SDS011;8629;42.496;25.620;2023-08-08T13:00:44;1.83;;;1.57;;
17024;SDS011;8629;42.496;25.620;2023-08-08T13:03:11;1.40;;;1.30;;
17024;SDS011;8629;42.496;25.620;2023-08-08T13:05:38;0.90;;;0.90;;
17024;SDS011;8629;42.496;25.620;2023-08-08T13:08:06;2.53;;;1.20;;
17024;SDS011;8629;42.496;25.620;2023-08-08T13:10:33;1.00;;;1.00;;
17024;SDS011;8629;42.496;25.620;2023-08-08T13:13:01;0.97;;;0.97;;
17024;SDS011;8629;42.496;25.620;2023-08-08T13:15:28;1.20;;;0.60;;
17024;SDS011;8629;42.496;25.620;2023-08-08T13:17:55;0.77;;;0.77;;
17024;SDS011;8629;42.496;25.620;2023-08-08T13:20:22;0.90;;;0.90;;
17024;SDS011;8629;42.496;25.620;2023-08-08T13:22:48;1.37;;;0.80;;
17024;SDS011;8629;42.496;25.620;2023-08-08T13:25:16;0.70;;;0.70;;
17024;SDS011;8629;42.496;25.620;2023-08-08T13:27:43;0.77;;;0.60;;
17024;SDS011;8629;42.496;25.620;2023-08-08T13:30:11;1.00;;;0.60;;
17024;SDS011;8629;42.496;25.620;2023-08-08T13:32:41;0.93;;;0.80;;
17024;SDS011;8629;42.496;25.620;2023-08-08T13:35:08;1.60;;;0.70;;
17024;SDS011;8629;42.496;25.620;2023-08-08T13:37:35;0.80;;;0.80;;
17024;SDS011;8629;42.496;25.620;2023-08-08T13:40:02;0.67;;;0.67;;
17024;SDS011;8629;42.496;25.620;2023-08-08T13:42:30;2.63;;;0.83;;
17024;SDS011;8629;42.496;25.620;2023-08-08T13:44:57;0.80;;;0.80;;
17024;SDS011;8629;42.496;25.620;2023-08-08T13:47:24;0.90;;;0.90;;
17024;SDS011;8629;42.496;25.620;2023-08-08T13:49:51;0.70;;;0.70;;
17024;SDS011;8629;42.496;25.620;2023-08-08T13:52:18;1.70;;;0.90;;
17024;SDS011;8629;42.496;25.620;2023-08-08T13:54:45;0.70;;;0.70;;
17024;SDS011;8629;42.496;25.620;2023-08-08T13:57:12;0.83;;;0.70;;
17024;SDS011;8629;42.496;25.620;2023-08-08T13:59:40;0.80;;;0.80;;
17024;SDS011;8629;42.496;25.620;2023-08-08T14:02:07;2.20;;;0.90;;
17024;SDS011;8629;42.496;25.620;2023-08-08T14:04:34;4.33;;;1.00;;
17024;SDS011;8629;42.496;25.620;2023-08-08T14:07:01;0.70;;;0.70;;
17024;SDS011;8629;42.496;25.620;2023-08-08T14:09:28;0.83;;;0.80;;
17024;SDS011;8629;42.496;25.620;2023-08-08T14:11:54;0.70;;;0.70;;
17024;SDS011;8629;42.496;25.620;2023-08-08T14:14:21;0.70;;;0.70;;
17024;SDS011;8629;42.496;25.620;2023-08-08T14:16:50;0.80;;;0.80;;
17024;SDS011;8629;42.496;25.620;2023-08-08T14:19:16;0.83;;;0.80;;
17024;SDS011;8629;42.496;25.620;2023-08-08T14:21:44;0.73;;;0.73;;
17024;SDS011;8629;42.496;25.620;2023-08-08T14:24:11;0.63;;;0.63;;
17024;SDS011;8629;42.496;25.620;2023-08-08T14:26:37;0.60;;;0.60;;
17024;SDS011;8629;42.496;25.620;2023-08-08T14:29:04;0.73;;;0.73;;
17024;SDS011;8629;42.496;25.620;2023-08-08T14:31:31;0.70;;;0.70;;
17024;SDS011;8629;42.496;25.620;2023-08-08T14:33:59;2.10;;;0.83;;
17024;SDS011;8629;42.496;25.620;2023-08-08T14:36:27;0.60;;;0.60;;
17024;SDS011;8629;42.496;25.620;2023-08-08T14:38:53;0.80;;;0.70;;
17024;SDS011;8629;42.496;25.620;2023-08-08T14:41:20;0.70;;;0.70;;
17024;SDS011;8629;42.496;25.620;2023-08-08T14:43:47;0.60;;;0.60;;
17024;SDS011;8629;42.496;25.620;2023-08-08T14:46:14;0.83;;;0.70;;
17024;SDS011;8629;42.496;25.620;2023-08-08T14:48:41;0.70;;;0.70;;